sensor_id;sensor_type;location;lat;lon;timestamp;temperature;humidity
31451;DHT22;18070;52.474;13.304;2023-10-08T00:02:27;12.90;99.90
31451;DHT22;18070;52.474;13.304;2023-10-08T00:04:53;12.90;99.90
31451;DHT22;18070;52.474;13.304;2023-10-08T00:07:23;12.90;99.90
31451;DHT22;18070;52.474;13.304;2023-10-08T00:09:51;12.90;99.90
31451;DHT22;18070;52.474;13.304;2023-10-08T00:12:18;12.80;99.90
31451;DHT22;18070;52.474;13.304;2023-10-08T00:14:45;12.80;99.90
31451;DHT22;18070;52.474;13.304;2023-10-08T00:17:15;12.90;99.90
31451;DHT22;18070;52.474;13.304;2023-10-08T00:19:41;12.90;99.90
31451;DHT22;18070;52.474;13.304;2023-10-08T00:22:12;12.80;99.90
31451;DHT22;18070;52.474;13.304;2023-10-08T00:24:41;12.90;99.90
31451;DHT22;18070;52.474;13.304;2023-10-08T00:27:08;12.80;99.90
31451;DHT22;18070;52.474;13.304;2023-10-08T00:29:34;12.90;99.90
31451;DHT22;18070;52.474;13.304;2023-10-08T00:31:59;12.90;99.90
31451;DHT22;18070;52.474;13.304;2023-10-08T00:34:28;12.90;99.90
31451;DHT22;18070;52.474;13.304;2023-10-08T00:36:54;12.90;99.90
31451;DHT22;18070;52.474;13.304;2023-10-08T00:39:20;12.90;99.90
31451;DHT22;18070;52.474;13.304;2023-10-08T00:41:50;12.90;99.90
31451;DHT22;18070;52.474;13.304;2023-10-08T00:44:23;12.90;99.90
31451;DHT22;18070;52.474;13.304;2023-10-08T00:46:55;12.90;99.90
31451;DHT22;18070;52.474;13.304;2023-10-08T00:49:25;12.80;99.90
31451;DHT22;18070;52.474;13.304;2023-10-08T00:52:14;12.80;99.90
31451;DHT22;18070;52.474;13.304;2023-10-08T00:54:41;12.80;99.90
31451;DHT22;18070;52.474;13.304;2023-10-08T00:57:22;12.80;99.90
31451;DHT22;18070;52.474;13.304;2023-10-08T00:59:48;12.80;99.90
31451;DHT22;18070;52.474;13.304;2023-10-08T01:02:31;12.80;99.90
31451;DHT22;18070;52.474;13.304;2023-10-08T01:05:15;12.80;99.90
31451;DHT22;18070;52.474;13.304;2023-10-08T01:07:46;12.70;99.90
31451;DHT22;18070;52.474;13.304;2023-10-08T01:10:14;12.70;99.90
31451;DHT22;18070;52.474;13.304;2023-10-08T01:12:45;12.70;99.90
31451;DHT22;18070;52.474;13.304;2023-10-08T01:15:19;12.70;99.90
31451;DHT22;18070;52.474;13.304;2023-10-08T01:17:50;12.70;99.90
31451;DHT22;18070;52.474;13.304;2023-10-08T01:20:39;12.70;99.90
31451;DHT22;18070;52.474;13.304;2023-10-08T01:23:13;12.70;99.90
31451;DHT22;18070;52.474;13.304;2023-10-08T01:25:43;12.70;99.90
31451;DHT22;18070;52.474;13.304;2023-10-08T01:28:09;12.70;99.90
31451;DHT22;18070;52.474;13.304;2023-10-08T01:30:41;12.70;99.90
31451;DHT22;18070;52.474;13.304;2023-10-08T01:33:09;12.70;99.90
31451;DHT22;18070;52.474;13.304;2023-10-08T01:35:40;12.60;99.90
31451;DHT22;18070;52.474;13.304;2023-10-08T01:38:06;12.60;99.90
31451;DHT22;18070;52.474;13.304;2023-10-08T01:40:32;12.60;99.90
31451;DHT22;18070;52.474;13.304;2023-10-08T01:42:58;12.60;99.90
31451;DHT22;18070;52.474;13.304;2023-10-08T01:45:29;12.60;99.90
31451;DHT22;18070;52.474;13.304;2023-10-08T01:47:55;12.60;99.90
31451;DHT22;18070;52.474;13.304;2023-10-08T01:50:22;12.60;99.90
31451;DHT22;18070;52.474;13.304;2023-10-08T01:52:51;12.60;99.90
31451;DHT22;18070;52.474;13.304;2023-10-08T01:55:17;12.70;99.90
31451;DHT22;18070;52.474;13.304;2023-10-08T01:57:48;12.60;99.90
31451;DHT22;18070;52.474;13.304;2023-10-08T02:00:14;12.70;99.90
31451;DHT22;18070;52.474;13.304;2023-10-08T02:02:40;12.60;99.90
31451;DHT22;18070;52.474;13.304;2023-10-08T02:05:08;12.70;99.90
31451;DHT22;18070;52.474;13.304;2023-10-08T02:07:35;12.60;99.90
31451;DHT22;18070;52.474;13.304;2023-10-08T02:10:00;12.60;99.90
31451;DHT22;18070;52.474;13.304;2023-10-08T02:12:26;12.60;99.90
31451;DHT22;18070;52.474;13.304;2023-10-08T02:14:51;12.60;99.90
31451;DHT22;18070;52.474;13.304;2023-10-08T02:17:17;12.60;99.90
31451;DHT22;18070;52.474;13.304;2023-10-08T02:19:42;12.70;99.90
31451;DHT22;18070;52.474;13.304;2023-10-08T02:22:08;12.60;99.90
31451;DHT22;18070;52.474;13.304;2023-10-08T02:24:37;12.60;99.90
31451;DHT22;18070;52.474;13.304;2023-10-08T02:27:03;12.60;99.90
31451;DHT22;18070;52.474;13.304;2023-10-08T02:29:30;12.60;99.90
31451;DHT22;18070;52.474;13.304;2023-10-08T02:31:59;12.50;99.90
31451;DHT22;18070;52.474;13.304;2023-10-08T02:34:25;12.60;99.90
31451;DHT22;18070;52.474;13.304;2023-10-08T02:36:50;12.60;99.90
31451;DHT22;18070;52.474;13.304;2023-10-08T02:39:16;12.60;99.90
31451;DHT22;18070;52.474;13.304;2023-10-08T02:41:47;12.60;99.90
31451;DHT22;18070;52.474;13.304;2023-10-08T02:44:14;12.50;99.90
31451;DHT22;18070;52.474;13.304;2023-10-08T02:46:41;12.50;99.90
31451;DHT22;18070;52.474;13.304;2023-10-08T02:49:11;12.50;99.90
31451;DHT22;18070;52.474;13.304;2023-10-08T02:51:38;12.50;99.90
31451;DHT22;18070;52.474;13.304;2023-10-08T02:54:05;12.50;99.90
31451;DHT22;18070;52.474;13.304;2023-10-08T02:56:31;12.50;99.90
31451;DHT22;18070;52.474;13.304;2023-10-08T02:58:58;12.50;99.90
31451;DHT22;18070;52.474;13.304;2023-10-08T03:01:25;12.50;99.90
31451;DHT22;18070;52.474;13.304;2023-10-08T03:03:51;12.50;99.90
31451;DHT22;18070;52.474;13.304;2023-10-08T03:06:28;12.50;99.90
31451;DHT22;18070;52.474;13.304;2023-10-08T03:08:57;12.50;99.90
31451;DHT22;18070;52.474;13.304;2023-10-08T03:11:29;12.50;99.90
31451;DHT22;18070;52.474;13.304;2023-10-08T03:13:56;12.50;99.90
31451;DHT22;18070;52.474;13.304;2023-10-08T03:16:22;12.50;99.90
31451;DHT22;18070;52.474;13.304;2023-10-08T03:18:53;12.50;99.90
31451;DHT22;18070;52.474;13.304;2023-10-08T03:21:20;12.50;99.90
31451;DHT22;18070;52.474;13.304;2023-10-08T03:23:46;12.50;99.90
31451;DHT22;18070;52.474;13.304;2023-10-08T03:26:23;12.60;99.90
31451;DHT22;18070;52.474;13.304;2023-10-08T03:29:01;12.60;99.90
31451;DHT22;18070;52.474;13.304;2023-10-08T03:31:31;12.60;99.90
31451;DHT22;18070;52.474;13.304;2023-10-08T03:34:12;12.60;99.90
31451;DHT22;18070;52.474;13.304;2023-10-08T03:36:41;12.50;99.90
31451;DHT22;18070;52.474;13.304;2023-10-08T03:39:14;12.50;99.90
31451;DHT22;18070;52.474;13.304;2023-10-08T03:41:42;12.60;99.90
31451;DHT22;18070;52.474;13.304;2023-10-08T03:44:17;12.50;99.90
31451;DHT22;18070;52.474;13.304;2023-10-08T03:46:43;12.50;99.90
31451;DHT22;18070;52.474;13.304;2023-10-08T03:49:12;12.50;99.90
31451;DHT22;18070;52.474;13.304;2023-10-08T03:51:51;12.50;99.90
31451;DHT22;18070;52.474;13.304;2023-10-08T03:54:21;12.50;99.90
31451;DHT22;18070;52.474;13.304;2023-10-08T03:56:55;12.60;99.90
31451;DHT22;18070;52.474;13.304;2023-10-08T03:59:21;12.60;99.90
31451;DHT22;18070;52.474;13.304;2023-10-08T04:01:53;12.50;99.90
31451;DHT22;18070;52.474;13.304;2023-10-08T04:04:21;12.50;99.90
31451;DHT22;18070;52.474;13.304;2023-10-08T04:06:55;12.50;99.90
31451;DHT22;18070;52.474;13.304;2023-10-08T04:09:38;12.60;99.90
31451;DHT22;18070;52.474;13.304;2023-10-08T04:12:05;12.60;99.90
31451;DHT22;18070;52.474;13.304;2023-10-08T04:14:36;12.60;99.90
31451;DHT22;18070;52.474;13.304;2023-10-08T04:17:02;12.50;99.90
31451;DHT22;18070;52.474;13.304;2023-10-08T04:19:30;12.50;99.90
31451;DHT22;18070;52.474;13.304;2023-10-08T04:21:56;12.50;99.90
31451;DHT22;18070;52.474;13.304;2023-10-08T04:24:26;12.50;99.90
31451;DHT22;18070;52.474;13.304;2023-10-08T04:27:01;12.50;99.90
31451;DHT22;18070;52.474;13.304;2023-10-08T04:29:28;12.40;99.90
31451;DHT22;18070;52.474;13.304;2023-10-08T04:32:01;12.50;99.90
31451;DHT22;18070;52.474;13.304;2023-10-08T04:34:30;12.50;99.90
31451;DHT22;18070;52.474;13.304;2023-10-08T04:36:58;12.50;99.90
31451;DHT22;18070;52.474;13.304;2023-10-08T04:39:27;12.50;99.90
31451;DHT22;18070;52.474;13.304;2023-10-08T04:41:59;12.50;99.90
31451;DHT22;18070;52.474;13.304;2023-10-08T04:44:32;12.40;99.90
31451;DHT22;18070;52.474;13.304;2023-10-08T04:46:58;12.40;99.90
31451;DHT22;18070;52.474;13.304;2023-10-08T04:49:30;12.40;99.90
31451;DHT22;18070;52.474;13.304;2023-10-08T04:51:58;12.40;99.90
31451;DHT22;18070;52.474;13.304;2023-10-08T04:54:28;12.30;99.90
31451;DHT22;18070;52.474;13.304;2023-10-08T04:57:00;12.30;99.90
31451;DHT22;18070;52.474;13.304;2023-10-08T04:59:29;12.20;99.90
31451;DHT22;18070;52.474;13.304;2023-10-08T05:02:03;12.10;99.90
31451;DHT22;18070;52.474;13.304;2023-10-08T05:04:49;12.10;99.90
31451;DHT22;18070;52.474;13.304;2023-10-08T05:07:21;12.10;99.90
31451;DHT22;18070;52.474;13.304;2023-10-08T05:10:06;12.00;99.90
31451;DHT22;18070;52.474;13.304;2023-10-08T05:12:31;12.00;99.90
31451;DHT22;18070;52.474;13.304;2023-10-08T05:15:06;11.90;99.90
31451;DHT22;18070;52.474;13.304;2023-10-08T05:17:41;11.90;99.90
31451;DHT22;18070;52.474;13.304;2023-10-08T05:20:23;11.80;99.90
31451;DHT22;18070;52.474;13.304;2023-10-08T05:23:10;11.70;99.90
31451;DHT22;18070;52.474;13.304;2023-10-08T05:25:55;11.70;99.90
31451;DHT22;18070;52.474;13.304;2023-10-08T05:28:35;11.70;99.90
31451;DHT22;18070;52.474;13.304;2023-10-08T05:31:09;11.70;99.90
31451;DHT22;18070;52.474;13.304;2023-10-08T05:33:54;11.70;99.90
31451;DHT22;18070;52.474;13.304;2023-10-08T05:36:29;11.60;99.90
31451;DHT22;18070;52.474;13.304;2023-10-08T05:39:21;11.60;99.90
31451;DHT22;18070;52.474;13.304;2023-10-08T05:41:50;11.60;99.90
31451;DHT22;18070;52.474;13.304;2023-10-08T05:44:30;11.60;99.90
31451;DHT22;18070;52.474;13.304;2023-10-08T05:47:06;11.60;99.90
31451;DHT22;18070;52.474;13.304;2023-10-08T05:49:38;11.60;99.90
31451;DHT22;18070;52.474;13.304;2023-10-08T05:52:04;11.70;99.90
31451;DHT22;18070;52.474;13.304;2023-10-08T05:54:31;11.70;99.90
31451;DHT22;18070;52.474;13.304;2023-10-08T05:57:08;11.70;99.90
31451;DHT22;18070;52.474;13.304;2023-10-08T05:59:45;11.70;99.90
31451;DHT22;18070;52.474;13.304;2023-10-08T06:02:23;11.70;99.90
31451;DHT22;18070;52.474;13.304;2023-10-08T06:05:15;11.70;99.90
31451;DHT22;18070;52.474;13.304;2023-10-08T06:07:53;11.80;99.90
31451;DHT22;18070;52.474;13.304;2023-10-08T06:10:24;11.90;99.90
31451;DHT22;18070;52.474;13.304;2023-10-08T06:15:42;12.00;99.90
31451;DHT22;18070;52.474;13.304;2023-10-08T06:18:21;12.00;99.90
31451;DHT22;18070;52.474;13.304;2023-10-08T06:20:55;12.10;99.90
31451;DHT22;18070;52.474;13.304;2023-10-08T06:23:22;12.10;99.90
31451;DHT22;18070;52.474;13.304;2023-10-08T06:25:53;12.10;99.90
31451;DHT22;18070;52.474;13.304;2023-10-08T06:28:45;12.20;99.90
31451;DHT22;18070;52.474;13.304;2023-10-08T06:31:11;12.20;99.90
31451;DHT22;18070;52.474;13.304;2023-10-08T06:33:38;12.30;99.90
31451;DHT22;18070;52.474;13.304;2023-10-08T06:36:04;12.40;99.90
31451;DHT22;18070;52.474;13.304;2023-10-08T06:38:36;12.40;99.90
31451;DHT22;18070;52.474;13.304;2023-10-08T06:41:04;12.40;99.90
31451;DHT22;18070;52.474;13.304;2023-10-08T06:43:40;12.40;99.90
31451;DHT22;18070;52.474;13.304;2023-10-08T06:46:08;12.40;99.90
31451;DHT22;18070;52.474;13.304;2023-10-08T06:48:38;12.50;99.90
31451;DHT22;18070;52.474;13.304;2023-10-08T06:51:08;12.50;99.90
31451;DHT22;18070;52.474;13.304;2023-10-08T06:53:41;12.40;99.90
31451;DHT22;18070;52.474;13.304;2023-10-08T06:56:07;12.50;99.90
31451;DHT22;18070;52.474;13.304;2023-10-08T06:58:35;12.60;99.90
31451;DHT22;18070;52.474;13.304;2023-10-08T07:01:01;12.70;99.90
31451;DHT22;18070;52.474;13.304;2023-10-08T07:03:31;12.70;99.90
31451;DHT22;18070;52.474;13.304;2023-10-08T07:05:57;12.80;99.90
31451;DHT22;18070;52.474;13.304;2023-10-08T07:08:31;12.80;99.90
31451;DHT22;18070;52.474;13.304;2023-10-08T07:10:59;12.80;99.90
31451;DHT22;18070;52.474;13.304;2023-10-08T07:13:26;12.80;99.90
31451;DHT22;18070;52.474;13.304;2023-10-08T07:15:55;12.90;99.90
31451;DHT22;18070;52.474;13.304;2023-10-08T07:18:21;13.00;99.90
31451;DHT22;18070;52.474;13.304;2023-10-08T07:20:54;13.00;99.90
31451;DHT22;18070;52.474;13.304;2023-10-08T07:23:24;13.00;99.90
31451;DHT22;18070;52.474;13.304;2023-10-08T07:26:01;12.90;99.90
31451;DHT22;18070;52.474;13.304;2023-10-08T07:28:40;12.80;99.90
31451;DHT22;18070;52.474;13.304;2023-10-08T07:31:16;12.70;99.90
31451;DHT22;18070;52.474;13.304;2023-10-08T07:33:48;12.70;99.90
31451;DHT22;18070;52.474;13.304;2023-10-08T07:36:14;12.70;99.90
31451;DHT22;18070;52.474;13.304;2023-10-08T07:38:43;12.60;99.90
31451;DHT22;18070;52.474;13.304;2023-10-08T07:41:10;12.70;99.90
31451;DHT22;18070;52.474;13.304;2023-10-08T07:43:41;12.70;99.90
31451;DHT22;18070;52.474;13.304;2023-10-08T07:46:12;12.70;99.90
31451;DHT22;18070;52.474;13.304;2023-10-08T07:48:40;12.70;99.90
31451;DHT22;18070;52.474;13.304;2023-10-08T07:51:09;12.70;99.90
31451;DHT22;18070;52.474;13.304;2023-10-08T07:53:34;12.60;99.90
31451;DHT22;18070;52.474;13.304;2023-10-08T07:56:06;12.70;99.90
31451;DHT22;18070;52.474;13.304;2023-10-08T07:58:33;12.70;99.90
31451;DHT22;18070;52.474;13.304;2023-10-08T08:01:06;12.70;99.90
31451;DHT22;18070;52.474;13.304;2023-10-08T08:03:33;12.70;99.90
31451;DHT22;18070;52.474;13.304;2023-10-08T08:06:00;12.80;99.90
31451;DHT22;18070;52.474;13.304;2023-10-08T08:08:26;13.00;99.90
31451;DHT22;18070;52.474;13.304;2023-10-08T08:10:53;13.10;99.90
31451;DHT22;18070;52.474;13.304;2023-10-08T08:13:23;13.10;99.90
31451;DHT22;18070;52.474;13.304;2023-10-08T08:15:53;13.20;99.90
31451;DHT22;18070;52.474;13.304;2023-10-08T08:18:24;13.30;99.90
31451;DHT22;18070;52.474;13.304;2023-10-08T08:20:50;13.30;99.90
31451;DHT22;18070;52.474;13.304;2023-10-08T08:23:16;13.40;99.90
31451;DHT22;18070;52.474;13.304;2023-10-08T08:25:42;13.50;99.90
31451;DHT22;18070;52.474;13.304;2023-10-08T08:28:12;13.60;99.90
31451;DHT22;18070;52.474;13.304;2023-10-08T08:30:43;13.90;99.90
31451;DHT22;18070;52.474;13.304;2023-10-08T08:33:12;14.30;99.90
31451;DHT22;18070;52.474;13.304;2023-10-08T08:35:38;14.80;99.90
31451;DHT22;18070;52.474;13.304;2023-10-08T08:38:04;15.40;99.90
31451;DHT22;18070;52.474;13.304;2023-10-08T08:40:31;16.10;99.90
31451;DHT22;18070;52.474;13.304;2023-10-08T08:42:58;16.80;99.90
31451;DHT22;18070;52.474;13.304;2023-10-08T08:45:27;17.40;99.90
31451;DHT22;18070;52.474;13.304;2023-10-08T08:47:57;18.00;99.90
31451;DHT22;18070;52.474;13.304;2023-10-08T08:50:23;18.70;99.90
31451;DHT22;18070;52.474;13.304;2023-10-08T08:52:49;19.30;99.90
31451;DHT22;18070;52.474;13.304;2023-10-08T08:55:17;19.90;99.90
31451;DHT22;18070;52.474;13.304;2023-10-08T08:57:44;20.20;99.90
31451;DHT22;18070;52.474;13.304;2023-10-08T09:00:16;20.40;99.90
31451;DHT22;18070;52.474;13.304;2023-10-08T09:02:42;20.70;99.90
31451;DHT22;18070;52.474;13.304;2023-10-08T09:05:10;21.00;99.90
31451;DHT22;18070;52.474;13.304;2023-10-08T09:08:00;21.30;99.60
31451;DHT22;18070;52.474;13.304;2023-10-08T09:10:29;21.60;99.90
31451;DHT22;18070;52.474;13.304;2023-10-08T09:12:58;21.90;99.90
31451;DHT22;18070;52.474;13.304;2023-10-08T09:15:25;22.10;98.10
31451;DHT22;18070;52.474;13.304;2023-10-08T09:17:52;22.30;96.20
31451;DHT22;18070;52.474;13.304;2023-10-08T09:20:20;22.30;96.00
31451;DHT22;18070;52.474;13.304;2023-10-08T09:23:15;22.20;96.80
31451;DHT22;18070;52.474;13.304;2023-10-08T09:25:44;22.20;95.50
31451;DHT22;18070;52.474;13.304;2023-10-08T09:28:10;22.30;90.60
31451;DHT22;18070;52.474;13.304;2023-10-08T09:30:39;22.60;92.20
31451;DHT22;18070;52.474;13.304;2023-10-08T09:33:09;22.70;88.10
31451;DHT22;18070;52.474;13.304;2023-10-08T09:35:35;22.90;85.00
31451;DHT22;18070;52.474;13.304;2023-10-08T09:38:03;23.00;90.20
31451;DHT22;18070;52.474;13.304;2023-10-08T09:40:29;23.20;90.30
31451;DHT22;18070;52.474;13.304;2023-10-08T09:42:55;23.10;89.50
31451;DHT22;18070;52.474;13.304;2023-10-08T09:45:22;23.30;84.80
31451;DHT22;18070;52.474;13.304;2023-10-08T09:47:53;23.50;72.40
31451;DHT22;18070;52.474;13.304;2023-10-08T09:50:32;23.50;76.60
31451;DHT22;18070;52.474;13.304;2023-10-08T09:53:11;23.70;77.60
31451;DHT22;18070;52.474;13.304;2023-10-08T09:55:55;23.90;78.20
31451;DHT22;18070;52.474;13.304;2023-10-08T09:58:26;24.20;80.10
31451;DHT22;18070;52.474;13.304;2023-10-08T10:00:54;24.40;77.40
31451;DHT22;18070;52.474;13.304;2023-10-08T10:03:21;24.50;77.40
31451;DHT22;18070;52.474;13.304;2023-10-08T10:05:49;24.80;75.70
31451;DHT22;18070;52.474;13.304;2023-10-08T10:08:20;24.70;75.30
31451;DHT22;18070;52.474;13.304;2023-10-08T10:10:58;24.40;70.60
31451;DHT22;18070;52.474;13.304;2023-10-08T10:13:27;24.60;66.30
31451;DHT22;18070;52.474;13.304;2023-10-08T10:15:54;24.70;71.50
31451;DHT22;18070;52.474;13.304;2023-10-08T10:20:53;25.20;69.20
31451;DHT22;18070;52.474;13.304;2023-10-08T10:23:39;25.20;69.40
31451;DHT22;18070;52.474;13.304;2023-10-08T10:26:22;25.00;67.40
31451;DHT22;18070;52.474;13.304;2023-10-08T10:31:39;25.20;65.20
31451;DHT22;18070;52.474;13.304;2023-10-08T10:34:11;25.30;60.60
31451;DHT22;18070;52.474;13.304;2023-10-08T10:36:38;24.30;63.20
31451;DHT22;18070;52.474;13.304;2023-10-08T10:39:09;23.80;65.90
31451;DHT22;18070;52.474;13.304;2023-10-08T10:41:57;23.70;65.30
31451;DHT22;18070;52.474;13.304;2023-10-08T10:44:24;23.20;69.20
31451;DHT22;18070;52.474;13.304;2023-10-08T10:46:50;23.00;66.90
31451;DHT22;18070;52.474;13.304;2023-10-08T10:49:19;22.90;68.80
31451;DHT22;18070;52.474;13.304;2023-10-08T10:51:47;22.60;64.90
31451;DHT22;18070;52.474;13.304;2023-10-08T10:54:16;22.80;64.30
31451;DHT22;18070;52.474;13.304;2023-10-08T10:56:47;23.10;66.70
31451;DHT22;18070;52.474;13.304;2023-10-08T10:59:13;23.20;64.50
31451;DHT22;18070;52.474;13.304;2023-10-08T11:01:46;23.10;66.80
31451;DHT22;18070;52.474;13.304;2023-10-08T11:04:14;23.40;62.40
31451;DHT22;18070;52.474;13.304;2023-10-08T11:06:44;23.10;66.20
31451;DHT22;18070;52.474;13.304;2023-10-08T11:09:10;23.30;64.50
31451;DHT22;18070;52.474;13.304;2023-10-08T11:11:42;23.50;64.10
31451;DHT22;18070;52.474;13.304;2023-10-08T11:14:12;23.60;67.50
31451;DHT22;18070;52.474;13.304;2023-10-08T11:16:45;23.90;62.20
31451;DHT22;18070;52.474;13.304;2023-10-08T11:19:13;23.90;61.00
31451;DHT22;18070;52.474;13.304;2023-10-08T11:21:59;24.00;61.50
31451;DHT22;18070;52.474;13.304;2023-10-08T11:24:29;23.30;62.20
31451;DHT22;18070;52.474;13.304;2023-10-08T11:26:55;22.50;63.60
31451;DHT22;18070;52.474;13.304;2023-10-08T11:29:45;21.70;67.90
31451;DHT22;18070;52.474;13.304;2023-10-08T11:32:12;21.10;67.80
31451;DHT22;18070;52.474;13.304;2023-10-08T11:34:41;20.60;67.90
31451;DHT22;18070;52.474;13.304;2023-10-08T11:39:45;19.70;68.80
31451;DHT22;18070;52.474;13.304;2023-10-08T11:42:11;19.30;70.80
31451;DHT22;18070;52.474;13.304;2023-10-08T11:44:55;18.90;75.50
31451;DHT22;18070;52.474;13.304;2023-10-08T11:47:24;18.80;73.50
31451;DHT22;18070;52.474;13.304;2023-10-08T11:49:56;18.70;72.50
31451;DHT22;18070;52.474;13.304;2023-10-08T11:52:38;18.50;79.30
31451;DHT22;18070;52.474;13.304;2023-10-08T11:55:11;18.50;74.50
31451;DHT22;18070;52.474;13.304;2023-10-08T11:57:49;18.30;75.10
31451;DHT22;18070;52.474;13.304;2023-10-08T12:00:16;18.40;76.80
31451;DHT22;18070;52.474;13.304;2023-10-08T12:02:48;18.10;76.30
31451;DHT22;18070;52.474;13.304;2023-10-08T12:05:13;18.10;78.20
31451;DHT22;18070;52.474;13.304;2023-10-08T12:07:49;18.10;76.40
31451;DHT22;18070;52.474;13.304;2023-10-08T12:10:16;18.10;76.90
31451;DHT22;18070;52.474;13.304;2023-10-08T12:12:53;18.00;77.20
31451;DHT22;18070;52.474;13.304;2023-10-08T12:15:23;17.90;82.00
31451;DHT22;18070;52.474;13.304;2023-10-08T12:17:59;17.80;80.90
31451;DHT22;18070;52.474;13.304;2023-10-08T12:23:10;17.70;81.30
31451;DHT22;18070;52.474;13.304;2023-10-08T12:25:57;17.70;82.90
31451;DHT22;18070;52.474;13.304;2023-10-08T12:28:23;17.60;85.20
31451;DHT22;18070;52.474;13.304;2023-10-08T12:30:49;17.50;84.00
31451;DHT22;18070;52.474;13.304;2023-10-08T12:33:21;17.40;79.50
31451;DHT22;18070;52.474;13.304;2023-10-08T12:35:48;17.40;84.30
31451;DHT22;18070;52.474;13.304;2023-10-08T12:38:14;17.50;79.40
31451;DHT22;18070;52.474;13.304;2023-10-08T12:40:40;17.50;78.50
31451;DHT22;18070;52.474;13.304;2023-10-08T12:43:21;17.50;81.00
31451;DHT22;18070;52.474;13.304;2023-10-08T12:48:24;17.50;84.10
31451;DHT22;18070;52.474;13.304;2023-10-08T12:50:51;17.50;79.90
31451;DHT22;18070;52.474;13.304;2023-10-08T12:53:24;17.50;79.70
31451;DHT22;18070;52.474;13.304;2023-10-08T12:55:56;17.50;78.10
31451;DHT22;18070;52.474;13.304;2023-10-08T12:58:24;17.50;80.60
31451;DHT22;18070;52.474;13.304;2023-10-08T13:00:55;17.40;78.00
31451;DHT22;18070;52.474;13.304;2023-10-08T13:03:27;17.40;75.00
31451;DHT22;18070;52.474;13.304;2023-10-08T13:05:57;17.50;76.70
31451;DHT22;18070;52.474;13.304;2023-10-08T13:08:32;17.50;77.30
31451;DHT22;18070;52.474;13.304;2023-10-08T13:13:30;17.30;77.20
31451;DHT22;18070;52.474;13.304;2023-10-08T13:15:56;17.30;79.80
31451;DHT22;18070;52.474;13.304;2023-10-08T13:18:25;17.10;78.80
31451;DHT22;18070;52.474;13.304;2023-10-08T13:20:54;17.10;79.30
31451;DHT22;18070;52.474;13.304;2023-10-08T13:23:20;17.00;80.20
31451;DHT22;18070;52.474;13.304;2023-10-08T13:25:50;16.90;82.80
31451;DHT22;18070;52.474;13.304;2023-10-08T13:28:22;16.80;80.40
31451;DHT22;18070;52.474;13.304;2023-10-08T13:30:51;16.60;83.90
31451;DHT22;18070;52.474;13.304;2023-10-08T13:33:21;16.60;82.40
31451;DHT22;18070;52.474;13.304;2023-10-08T13:35:48;16.50;82.60
31451;DHT22;18070;52.474;13.304;2023-10-08T13:38:16;16.40;82.70
31451;DHT22;18070;52.474;13.304;2023-10-08T13:40:42;16.30;86.40
31451;DHT22;18070;52.474;13.304;2023-10-08T13:43:31;16.30;84.10
31451;DHT22;18070;52.474;13.304;2023-10-08T13:46:03;16.40;82.90
31451;DHT22;18070;52.474;13.304;2023-10-08T13:48:34;16.40;84.20
31451;DHT22;18070;52.474;13.304;2023-10-08T13:51:01;16.50;84.30
31451;DHT22;18070;52.474;13.304;2023-10-08T13:53:31;16.60;83.80
31451;DHT22;18070;52.474;13.304;2023-10-08T13:55:59;16.60;82.60
31451;DHT22;18070;52.474;13.304;2023-10-08T13:58:27;16.60;84.10
31451;DHT22;18070;52.474;13.304;2023-10-08T14:00:54;16.50;86.50
31451;DHT22;18070;52.474;13.304;2023-10-08T14:03:19;16.60;83.30
31451;DHT22;18070;52.474;13.304;2023-10-08T14:05:48;16.60;84.60
31451;DHT22;18070;52.474;13.304;2023-10-08T14:08:19;16.60;83.20
31451;DHT22;18070;52.474;13.304;2023-10-08T14:10:45;16.60;81.60
31451;DHT22;18070;52.474;13.304;2023-10-08T14:13:14;16.60;82.50
31451;DHT22;18070;52.474;13.304;2023-10-08T14:15:48;16.60;81.90
31451;DHT22;18070;52.474;13.304;2023-10-08T14:18:22;16.60;82.70
31451;DHT22;18070;52.474;13.304;2023-10-08T14:20:52;16.50;80.10
31451;DHT22;18070;52.474;13.304;2023-10-08T14:23:20;16.40;82.30
31451;DHT22;18070;52.474;13.304;2023-10-08T14:25:48;16.30;84.10
31451;DHT22;18070;52.474;13.304;2023-10-08T14:28:16;16.30;84.20
31451;DHT22;18070;52.474;13.304;2023-10-08T14:30:49;16.30;83.30
31451;DHT22;18070;52.474;13.304;2023-10-08T14:33:20;16.40;85.90
31451;DHT22;18070;52.474;13.304;2023-10-08T14:35:50;16.60;87.50
31451;DHT22;18070;52.474;13.304;2023-10-08T14:38:34;16.90;86.10
31451;DHT22;18070;52.474;13.304;2023-10-08T14:41:18;17.20;86.30
31451;DHT22;18070;52.474;13.304;2023-10-08T14:44:03;17.40;84.70
31451;DHT22;18070;52.474;13.304;2023-10-08T14:46:30;17.60;82.90
31451;DHT22;18070;52.474;13.304;2023-10-08T14:48:58;17.60;80.70
31451;DHT22;18070;52.474;13.304;2023-10-08T14:51:24;17.70;80.80
31451;DHT22;18070;52.474;13.304;2023-10-08T14:53:50;17.70;84.50
31451;DHT22;18070;52.474;13.304;2023-10-08T14:56:16;17.70;81.50
31451;DHT22;18070;52.474;13.304;2023-10-08T14:58:44;17.80;81.80
31451;DHT22;18070;52.474;13.304;2023-10-08T15:01:09;17.70;83.90
31451;DHT22;18070;52.474;13.304;2023-10-08T15:03:39;17.70;82.40
31451;DHT22;18070;52.474;13.304;2023-10-08T15:06:04;17.50;83.50
31451;DHT22;18070;52.474;13.304;2023-10-08T15:08:32;17.30;85.00
31451;DHT22;18070;52.474;13.304;2023-10-08T15:10:58;17.30;85.60
31451;DHT22;18070;52.474;13.304;2023-10-08T15:13:24;17.10;85.50
31451;DHT22;18070;52.474;13.304;2023-10-08T15:15:51;16.90;86.50
31451;DHT22;18070;52.474;13.304;2023-10-08T15:18:16;16.70;89.60
31451;DHT22;18070;52.474;13.304;2023-10-08T15:20:44;16.70;87.00
31451;DHT22;18070;52.474;13.304;2023-10-08T15:23:09;16.70;87.10
31451;DHT22;18070;52.474;13.304;2023-10-08T15:25:37;16.50;87.40
31451;DHT22;18070;52.474;13.304;2023-10-08T15:28:04;16.50;87.60
31451;DHT22;18070;52.474;13.304;2023-10-08T15:30:30;16.40;89.30
31451;DHT22;18070;52.474;13.304;2023-10-08T15:32:57;16.20;90.70
31451;DHT22;18070;52.474;13.304;2023-10-08T15:35:23;16.10;91.20
31451;DHT22;18070;52.474;13.304;2023-10-08T15:37:51;16.10;92.00
31451;DHT22;18070;52.474;13.304;2023-10-08T15:40:16;16.00;92.10
31451;DHT22;18070;52.474;13.304;2023-10-08T15:42:53;15.90;91.00
31451;DHT22;18070;52.474;13.304;2023-10-08T15:45:20;15.80;91.40
31451;DHT22;18070;52.474;13.304;2023-10-08T15:47:46;15.70;90.80
31451;DHT22;18070;52.474;13.304;2023-10-08T15:50:12;15.60;93.30
31451;DHT22;18070;52.474;13.304;2023-10-08T15:52:38;15.60;94.10
31451;DHT22;18070;52.474;13.304;2023-10-08T15:55:05;15.50;93.50